sensor_id;sensor_type;location;lat;lon;timestamp;P1;durP1;ratioP1;P2;durP2;ratioP2
23519;SDS011;11936;50.820;4.336;2023-11-18T00:01:25;14.00;;;6.80;;
23519;SDS011;11936;50.820;4.336;2023-11-18T00:03:55;18.10;;;9.10;;
23519;SDS011;11936;50.820;4.336;2023-11-18T00:06:21;23.40;;;9.98;;
23519;SDS011;11936;50.820;4.336;2023-11-18T00:08:46;25.67;;;9.63;;
23519;SDS011;11936;50.820;4.336;2023-11-18T00:11:12;25.55;;;10.15;;
23519;SDS011;11936;50.820;4.336;2023-11-18T00:13:39;17.25;;;9.45;;
23519;SDS011;11936;50.820;4.336;2023-11-18T00:16:05;18.38;;;9.43;;
23519;SDS011;11936;50.820;4.336;2023-11-18T00:18:31;19.80;;;8.95;;
23519;SDS011;11936;50.820;4.336;2023-11-18T00:20:57;16.25;;;8.10;;
23519;SDS011;11936;50.820;4.336;2023-11-18T00:23:23;13.57;;;7.47;;
23519;SDS011;11936;50.820;4.336;2023-11-18T00:25:49;16.27;;;8.80;;
23519;SDS011;11936;50.820;4.336;2023-11-18T00:28:14;15.35;;;8.35;;
23519;SDS011;11936;50.820;4.336;2023-11-18T00:30:40;17.30;;;8.43;;
23519;SDS011;11936;50.820;4.336;2023-11-18T00:33:06;19.23;;;9.70;;
23519;SDS011;11936;50.820;4.336;2023-11-18T00:35:31;24.05;;;9.70;;
23519;SDS011;11936;50.820;4.336;2023-11-18T00:37:58;17.92;;;8.57;;
23519;SDS011;11936;50.820;4.336;2023-11-18T00:40:25;15.93;;;8.35;;
23519;SDS011;11936;50.820;4.336;2023-11-18T00:42:51;16.98;;;7.95;;
23519;SDS011;11936;50.820;4.336;2023-11-18T00:45:17;15.15;;;7.95;;
23519;SDS011;11936;50.820;4.336;2023-11-18T00:47:43;17.67;;;8.18;;
23519;SDS011;11936;50.820;4.336;2023-11-18T00:50:09;22.15;;;7.80;;
23519;SDS011;11936;50.820;4.336;2023-11-18T00:52:35;14.43;;;7.85;;
23519;SDS011;11936;50.820;4.336;2023-11-18T00:55:02;18.33;;;7.75;;
23519;SDS011;11936;50.820;4.336;2023-11-18T00:57:28;14.52;;;6.35;;
23519;SDS011;11936;50.820;4.336;2023-11-18T00:59:53;15.48;;;7.50;;
23519;SDS011;11936;50.820;4.336;2023-11-18T01:02:19;16.15;;;7.00;;
23519;SDS011;11936;50.820;4.336;2023-11-18T01:04:44;12.10;;;6.38;;
23519;SDS011;11936;50.820;4.336;2023-11-18T01:07:11;10.75;;;6.70;;
23519;SDS011;11936;50.820;4.336;2023-11-18T01:09:37;10.50;;;5.88;;
23519;SDS011;11936;50.820;4.336;2023-11-18T01:12:04;14.30;;;7.03;;
23519;SDS011;11936;50.820;4.336;2023-11-18T01:14:33;15.32;;;6.18;;
23519;SDS011;11936;50.820;4.336;2023-11-18T01:16:59;11.80;;;6.85;;
23519;SDS011;11936;50.820;4.336;2023-11-18T01:19:25;22.95;;;5.85;;
23519;SDS011;11936;50.820;4.336;2023-11-18T01:21:50;14.93;;;6.50;;
23519;SDS011;11936;50.820;4.336;2023-11-18T01:24:18;13.55;;;5.65;;
23519;SDS011;11936;50.820;4.336;2023-11-18T01:26:43;11.27;;;5.75;;
23519;SDS011;11936;50.820;4.336;2023-11-18T01:29:10;10.77;;;5.78;;
23519;SDS011;11936;50.820;4.336;2023-11-18T01:31:36;11.63;;;5.18;;
23519;SDS011;11936;50.820;4.336;2023-11-18T01:34:01;17.17;;;5.97;;
23519;SDS011;11936;50.820;4.336;2023-11-18T01:36:30;9.33;;;5.07;;
23519;SDS011;11936;50.820;4.336;2023-11-18T01:38:55;12.45;;;5.85;;
23519;SDS011;11936;50.820;4.336;2023-11-18T01:41:21;17.85;;;5.78;;
23519;SDS011;11936;50.820;4.336;2023-11-18T01:43:47;11.85;;;4.97;;
23519;SDS011;11936;50.820;4.336;2023-11-18T01:46:12;10.35;;;5.55;;
23519;SDS011;11936;50.820;4.336;2023-11-18T01:48:39;8.85;;;4.88;;
23519;SDS011;11936;50.820;4.336;2023-11-18T01:51:07;10.55;;;5.05;;
23519;SDS011;11936;50.820;4.336;2023-11-18T01:53:35;11.20;;;5.25;;
23519;SDS011;11936;50.820;4.336;2023-11-18T01:56:03;11.55;;;5.32;;
23519;SDS011;11936;50.820;4.336;2023-11-18T01:58:30;13.20;;;5.22;;
23519;SDS011;11936;50.820;4.336;2023-11-18T02:01:03;9.60;;;5.43;;
23519;SDS011;11936;50.820;4.336;2023-11-18T02:03:33;8.48;;;4.70;;
23519;SDS011;11936;50.820;4.336;2023-11-18T02:05:59;7.18;;;3.97;;
23519;SDS011;11936;50.820;4.336;2023-11-18T02:08:26;10.30;;;4.70;;
23519;SDS011;11936;50.820;4.336;2023-11-18T02:11:09;11.52;;;4.72;;
23519;SDS011;11936;50.820;4.336;2023-11-18T02:13:42;9.35;;;4.88;;
23519;SDS011;11936;50.820;4.336;2023-11-18T02:16:12;8.25;;;4.47;;
23519;SDS011;11936;50.820;4.336;2023-11-18T02:18:40;14.15;;;4.80;;
23519;SDS011;11936;50.820;4.336;2023-11-18T02:21:08;13.10;;;4.60;;
23519;SDS011;11936;50.820;4.336;2023-11-18T02:23:35;10.00;;;4.15;;
23519;SDS011;11936;50.820;4.336;2023-11-18T02:26:02;9.95;;;4.68;;
23519;SDS011;11936;50.820;4.336;2023-11-18T02:28:28;12.43;;;4.45;;
23519;SDS011;11936;50.820;4.336;2023-11-18T02:31:05;8.63;;;4.57;;
23519;SDS011;11936;50.820;4.336;2023-11-18T02:33:42;13.20;;;4.45;;
23519;SDS011;11936;50.820;4.336;2023-11-18T02:36:20;8.40;;;3.90;;
23519;SDS011;11936;50.820;4.336;2023-11-18T02:38:52;9.15;;;4.53;;
23519;SDS011;11936;50.820;4.336;2023-11-18T02:41:20;13.48;;;4.00;;
23519;SDS011;11936;50.820;4.336;2023-11-18T02:43:47;7.55;;;3.45;;
23519;SDS011;11936;50.820;4.336;2023-11-18T02:46:14;11.20;;;3.60;;
23519;SDS011;11936;50.820;4.336;2023-11-18T02:48:41;7.72;;;3.45;;
23519;SDS011;11936;50.820;4.336;2023-11-18T02:51:08;6.05;;;3.17;;
23519;SDS011;11936;50.820;4.336;2023-11-18T02:56:02;12.18;;;3.25;;
23519;SDS011;11936;50.820;4.336;2023-11-18T02:58:29;5.75;;;3.58;;
23519;SDS011;11936;50.820;4.336;2023-11-18T03:00:55;8.82;;;3.60;;
23519;SDS011;11936;50.820;4.336;2023-11-18T03:03:21;6.78;;;3.33;;
23519;SDS011;11936;50.820;4.336;2023-11-18T03:05:46;8.13;;;3.10;;
23519;SDS011;11936;50.820;4.336;2023-11-18T03:08:15;22.35;;;3.83;;
23519;SDS011;11936;50.820;4.336;2023-11-18T03:10:40;5.90;;;3.17;;
23519;SDS011;11936;50.820;4.336;2023-11-18T03:13:09;10.80;;;3.35;;
23519;SDS011;11936;50.820;4.336;2023-11-18T03:15:35;8.70;;;3.05;;
23519;SDS011;11936;50.820;4.336;2023-11-18T03:18:00;13.02;;;2.78;;
23519;SDS011;11936;50.820;4.336;2023-11-18T03:20:26;9.73;;;4.10;;
23519;SDS011;11936;50.820;4.336;2023-11-18T03:22:52;8.82;;;2.95;;
23519;SDS011;11936;50.820;4.336;2023-11-18T03:25:18;8.77;;;3.40;;
23519;SDS011;11936;50.820;4.336;2023-11-18T03:27:46;7.15;;;3.28;;
23519;SDS011;11936;50.820;4.336;2023-11-18T03:30:12;5.80;;;2.67;;
23519;SDS011;11936;50.820;4.336;2023-11-18T03:32:41;9.63;;;3.13;;
23519;SDS011;11936;50.820;4.336;2023-11-18T03:37:37;10.25;;;3.50;;
23519;SDS011;11936;50.820;4.336;2023-11-18T03:40:06;14.57;;;2.83;;
23519;SDS011;11936;50.820;4.336;2023-11-18T03:42:32;13.13;;;3.08;;
23519;SDS011;11936;50.820;4.336;2023-11-18T03:44:58;8.90;;;2.85;;
23519;SDS011;11936;50.820;4.336;2023-11-18T03:47:24;10.13;;;2.88;;
23519;SDS011;11936;50.820;4.336;2023-11-18T03:49:50;11.82;;;3.25;;
23519;SDS011;11936;50.820;4.336;2023-11-18T03:52:15;10.35;;;2.55;;
23519;SDS011;11936;50.820;4.336;2023-11-18T03:54:41;8.82;;;2.95;;
23519;SDS011;11936;50.820;4.336;2023-11-18T03:57:07;6.70;;;3.00;;
23519;SDS011;11936;50.820;4.336;2023-11-18T03:59:32;7.85;;;2.70;;
23519;SDS011;11936;50.820;4.336;2023-11-18T04:01:58;6.03;;;2.38;;
23519;SDS011;11936;50.820;4.336;2023-11-18T04:04:24;14.30;;;3.00;;
23519;SDS011;11936;50.820;4.336;2023-11-18T04:06:49;6.55;;;2.60;;
23519;SDS011;11936;50.820;4.336;2023-11-18T04:09:15;5.82;;;2.50;;
23519;SDS011;11936;50.820;4.336;2023-11-18T04:11:41;4.30;;;2.20;;
23519;SDS011;11936;50.820;4.336;2023-11-18T04:16:35;6.50;;;3.08;;
23519;SDS011;11936;50.820;4.336;2023-11-18T04:19:03;6.15;;;2.30;;
23519;SDS011;11936;50.820;4.336;2023-11-18T04:21:28;6.13;;;2.33;;
23519;SDS011;11936;50.820;4.336;2023-11-18T04:23:54;5.88;;;2.20;;
23519;SDS011;11936;50.820;4.336;2023-11-18T04:26:20;9.43;;;2.30;;
23519;SDS011;11936;50.820;4.336;2023-11-18T04:28:45;7.45;;;2.20;;
23519;SDS011;11936;50.820;4.336;2023-11-18T04:31:11;8.55;;;2.40;;
23519;SDS011;11936;50.820;4.336;2023-11-18T04:33:37;13.20;;;2.53;;
23519;SDS011;11936;50.820;4.336;2023-11-18T04:36:02;5.93;;;2.53;;
23519;SDS011;11936;50.820;4.336;2023-11-18T04:38:30;11.10;;;2.47;;
23519;SDS011;11936;50.820;4.336;2023-11-18T04:40:57;7.32;;;2.50;;
23519;SDS011;11936;50.820;4.336;2023-11-18T04:43:22;6.88;;;2.00;;
23519;SDS011;11936;50.820;4.336;2023-11-18T04:45:48;6.88;;;1.90;;
23519;SDS011;11936;50.820;4.336;2023-11-18T04:48:14;3.92;;;1.98;;
23519;SDS011;11936;50.820;4.336;2023-11-18T04:50:41;9.65;;;2.20;;
23519;SDS011;11936;50.820;4.336;2023-11-18T04:53:07;5.93;;;2.25;;
23519;SDS011;11936;50.820;4.336;2023-11-18T04:55:39;5.97;;;2.25;;
23519;SDS011;11936;50.820;4.336;2023-11-18T04:58:05;8.30;;;2.00;;
23519;SDS011;11936;50.820;4.336;2023-11-18T05:00:31;7.45;;;2.08;;
23519;SDS011;11936;50.820;4.336;2023-11-18T05:02:58;8.35;;;2.60;;
23519;SDS011;11936;50.820;4.336;2023-11-18T05:05:23;8.13;;;2.65;;
23519;SDS011;11936;50.820;4.336;2023-11-18T05:07:49;9.20;;;2.40;;
23519;SDS011;11936;50.820;4.336;2023-11-18T05:10:14;5.82;;;2.22;;
23519;SDS011;11936;50.820;4.336;2023-11-18T05:12:40;12.05;;;2.08;;
23519;SDS011;11936;50.820;4.336;2023-11-18T05:15:08;5.82;;;2.10;;
23519;SDS011;11936;50.820;4.336;2023-11-18T05:17:35;6.38;;;2.63;;
23519;SDS011;11936;50.820;4.336;2023-11-18T05:20:04;6.30;;;2.08;;
23519;SDS011;11936;50.820;4.336;2023-11-18T05:22:33;6.03;;;1.83;;
23519;SDS011;11936;50.820;4.336;2023-11-18T05:24:59;8.98;;;2.28;;
23519;SDS011;11936;50.820;4.336;2023-11-18T05:27:25;4.57;;;2.30;;
23519;SDS011;11936;50.820;4.336;2023-11-18T05:29:51;6.68;;;2.00;;
23519;SDS011;11936;50.820;4.336;2023-11-18T05:32:22;7.15;;;2.42;;
23519;SDS011;11936;50.820;4.336;2023-11-18T05:37:19;4.03;;;1.60;;
23519;SDS011;11936;50.820;4.336;2023-11-18T05:39:45;7.60;;;2.97;;
23519;SDS011;11936;50.820;4.336;2023-11-18T05:42:11;8.02;;;2.53;;
23519;SDS011;11936;50.820;4.336;2023-11-18T05:44:37;9.95;;;2.40;;
23519;SDS011;11936;50.820;4.336;2023-11-18T05:47:04;6.18;;;2.53;;
23519;SDS011;11936;50.820;4.336;2023-11-18T05:49:32;8.15;;;2.45;;
23519;SDS011;11936;50.820;4.336;2023-11-18T05:52:00;8.00;;;2.53;;
23519;SDS011;11936;50.820;4.336;2023-11-18T05:54:25;6.85;;;2.50;;
23519;SDS011;11936;50.820;4.336;2023-11-18T05:56:51;12.77;;;3.47;;
23519;SDS011;11936;50.820;4.336;2023-11-18T05:59:18;5.15;;;1.83;;
23519;SDS011;11936;50.820;4.336;2023-11-18T06:01:44;5.80;;;2.22;;
23519;SDS011;11936;50.820;4.336;2023-11-18T06:04:12;7.10;;;2.80;;
23519;SDS011;11936;50.820;4.336;2023-11-18T06:06:38;6.50;;;1.77;;
23519;SDS011;11936;50.820;4.336;2023-11-18T06:09:04;8.18;;;2.33;;
23519;SDS011;11936;50.820;4.336;2023-11-18T06:11:33;10.00;;;2.88;;
23519;SDS011;11936;50.820;4.336;2023-11-18T06:14:00;6.28;;;2.55;;
23519;SDS011;11936;50.820;4.336;2023-11-18T06:16:26;10.25;;;2.55;;
23519;SDS011;11936;50.820;4.336;2023-11-18T06:18:53;5.65;;;1.95;;
23519;SDS011;11936;50.820;4.336;2023-11-18T06:21:23;6.13;;;1.98;;
23519;SDS011;11936;50.820;4.336;2023-11-18T06:23:52;8.32;;;1.90;;
23519;SDS011;11936;50.820;4.336;2023-11-18T06:26:19;6.37;;;2.27;;
23519;SDS011;11936;50.820;4.336;2023-11-18T06:28:47;5.80;;;1.92;;
23519;SDS011;11936;50.820;4.336;2023-11-18T06:31:16;6.53;;;1.98;;
23519;SDS011;11936;50.820;4.336;2023-11-18T06:33:42;5.13;;;1.70;;
23519;SDS011;11936;50.820;4.336;2023-11-18T06:38:42;6.72;;;2.00;;
23519;SDS011;11936;50.820;4.336;2023-11-18T06:41:09;6.97;;;1.73;;
23519;SDS011;11936;50.820;4.336;2023-11-18T06:43:40;9.00;;;2.50;;
23519;SDS011;11936;50.820;4.336;2023-11-18T06:46:19;6.15;;;1.92;;
23519;SDS011;11936;50.820;4.336;2023-11-18T06:48:50;10.52;;;2.40;;
23519;SDS011;11936;50.820;4.336;2023-11-18T06:51:20;7.18;;;2.15;;
23519;SDS011;11936;50.820;4.336;2023-11-18T06:53:49;8.95;;;2.08;;
23519;SDS011;11936;50.820;4.336;2023-11-18T06:56:25;10.00;;;2.50;;
23519;SDS011;11936;50.820;4.336;2023-11-18T06:58:52;5.80;;;1.88;;
23519;SDS011;11936;50.820;4.336;2023-11-18T07:03:47;6.88;;;1.92;;
23519;SDS011;11936;50.820;4.336;2023-11-18T07:06:22;9.25;;;2.28;;
23519;SDS011;11936;50.820;4.336;2023-11-18T07:08:48;5.07;;;1.90;;
23519;SDS011;11936;50.820;4.336;2023-11-18T07:11:15;8.00;;;2.05;;
23519;SDS011;11936;50.820;4.336;2023-11-18T07:13:41;5.20;;;1.88;;
23519;SDS011;11936;50.820;4.336;2023-11-18T07:16:07;7.00;;;1.70;;
23519;SDS011;11936;50.820;4.336;2023-11-18T07:18:34;6.18;;;2.00;;
23519;SDS011;11936;50.820;4.336;2023-11-18T07:21:00;6.60;;;2.13;;
23519;SDS011;11936;50.820;4.336;2023-11-18T07:23:28;9.10;;;2.70;;
23519;SDS011;11936;50.820;4.336;2023-11-18T07:25:54;6.53;;;2.75;;
23519;SDS011;11936;50.820;4.336;2023-11-18T07:28:19;8.15;;;2.72;;
23519;SDS011;11936;50.820;4.336;2023-11-18T07:30:45;10.10;;;2.50;;
23519;SDS011;11936;50.820;4.336;2023-11-18T07:33:13;12.00;;;2.42;;
23519;SDS011;11936;50.820;4.336;2023-11-18T07:35:39;6.10;;;2.53;;
23519;SDS011;11936;50.820;4.336;2023-11-18T07:38:05;10.15;;;3.15;;
23519;SDS011;11936;50.820;4.336;2023-11-18T07:40:32;7.30;;;2.30;;
23519;SDS011;11936;50.820;4.336;2023-11-18T07:42:58;14.23;;;3.47;;
23519;SDS011;11936;50.820;4.336;2023-11-18T07:45:26;13.02;;;2.70;;
23519;SDS011;11936;50.820;4.336;2023-11-18T07:47:54;9.38;;;2.72;;
23519;SDS011;11936;50.820;4.336;2023-11-18T07:50:20;10.63;;;2.70;;
23519;SDS011;11936;50.820;4.336;2023-11-18T07:52:49;6.88;;;3.05;;
23519;SDS011;11936;50.820;4.336;2023-11-18T07:55:15;5.78;;;2.80;;
23519;SDS011;11936;50.820;4.336;2023-11-18T07:57:41;10.25;;;3.55;;
23519;SDS011;11936;50.820;4.336;2023-11-18T08:00:07;10.95;;;3.30;;
23519;SDS011;11936;50.820;4.336;2023-11-18T08:02:36;7.95;;;2.90;;
23519;SDS011;11936;50.820;4.336;2023-11-18T08:05:05;8.02;;;3.72;;
23519;SDS011;11936;50.820;4.336;2023-11-18T08:07:38;10.60;;;3.45;;
23519;SDS011;11936;50.820;4.336;2023-11-18T08:10:05;9.20;;;3.67;;
23519;SDS011;11936;50.820;4.336;2023-11-18T08:12:31;9.00;;;3.97;;
23519;SDS011;11936;50.820;4.336;2023-11-18T08:14:59;8.07;;;3.47;;
23519;SDS011;11936;50.820;4.336;2023-11-18T08:17:25;8.23;;;3.88;;
23519;SDS011;11936;50.820;4.336;2023-11-18T08:19:54;6.32;;;3.75;;
23519;SDS011;11936;50.820;4.336;2023-11-18T08:22:21;10.77;;;4.15;;
23519;SDS011;11936;50.820;4.336;2023-11-18T08:24:48;8.32;;;3.65;;
23519;SDS011;11936;50.820;4.336;2023-11-18T08:27:17;7.10;;;3.70;;
23519;SDS011;11936;50.820;4.336;2023-11-18T08:29:43;11.00;;;4.15;;
23519;SDS011;11936;50.820;4.336;2023-11-18T08:32:08;12.73;;;4.00;;
23519;SDS011;11936;50.820;4.336;2023-11-18T08:34:34;7.43;;;3.95;;
23519;SDS011;11936;50.820;4.336;2023-11-18T08:37:04;11.73;;;4.85;;
23519;SDS011;11936;50.820;4.336;2023-11-18T08:39:30;12.57;;;4.60;;
23519;SDS011;11936;50.820;4.336;2023-11-18T08:41:57;8.23;;;3.92;;
23519;SDS011;11936;50.820;4.336;2023-11-18T08:44:22;8.93;;;4.57;;
23519;SDS011;11936;50.820;4.336;2023-11-18T08:46:52;7.28;;;4.22;;
23519;SDS011;11936;50.820;4.336;2023-11-18T08:49:18;6.90;;;4.32;;
23519;SDS011;11936;50.820;4.336;2023-11-18T08:54:20;8.27;;;4.30;;
23519;SDS011;11936;50.820;4.336;2023-11-18T08:56:53;8.18;;;4.65;;
23519;SDS011;11936;50.820;4.336;2023-11-18T08:59:19;8.70;;;3.65;;
23519;SDS011;11936;50.820;4.336;2023-11-18T09:01:50;11.43;;;4.30;;
23519;SDS011;11936;50.820;4.336;2023-11-18T09:04:20;8.23;;;4.57;;
23519;SDS011;11936;50.820;4.336;2023-11-18T09:06:46;11.90;;;4.45;;
23519;SDS011;11936;50.820;4.336;2023-11-18T09:09:13;10.80;;;4.65;;
23519;SDS011;11936;50.820;4.336;2023-11-18T09:11:40;9.68;;;4.20;;
23519;SDS011;11936;50.820;4.336;2023-11-18T09:14:07;8.43;;;4.47;;
23519;SDS011;11936;50.820;4.336;2023-11-18T09:16:33;9.35;;;4.40;;
23519;SDS011;11936;50.820;4.336;2023-11-18T09:19:04;10.73;;;4.55;;
23519;SDS011;11936;50.820;4.336;2023-11-18T09:21:31;7.95;;;4.07;;
23519;SDS011;11936;50.820;4.336;2023-11-18T09:24:00;9.82;;;4.15;;
23519;SDS011;11936;50.820;4.336;2023-11-18T09:26:30;7.30;;;3.97;;
23519;SDS011;11936;50.820;4.336;2023-11-18T09:28:56;8.18;;;4.10;;
23519;SDS011;11936;50.820;4.336;2023-11-18T09:31:23;7.00;;;3.78;;
23519;SDS011;11936;50.820;4.336;2023-11-18T09:33:48;11.27;;;4.72;;
23519;SDS011;11936;50.820;4.336;2023-11-18T09:36:17;4.70;;;3.60;;
23519;SDS011;11936;50.820;4.336;2023-11-18T09:38:43;8.63;;;3.65;;
23519;SDS011;11936;50.820;4.336;2023-11-18T09:41:13;7.53;;;4.03;;
23519;SDS011;11936;50.820;4.336;2023-11-18T09:43:42;7.88;;;4.07;;
23519;SDS011;11936;50.820;4.336;2023-11-18T09:46:22;5.03;;;3.80;;
23519;SDS011;11936;50.820;4.336;2023-11-18T09:48:52;5.47;;;3.47;;
23519;SDS011;11936;50.820;4.336;2023-11-18T09:51:27;6.65;;;3.40;;
23519;SDS011;11936;50.820;4.336;2023-11-18T09:53:55;7.38;;;3.80;;
23519;SDS011;11936;50.820;4.336;2023-11-18T10:01:59;8.32;;;3.78;;
23519;SDS011;11936;50.820;4.336;2023-11-18T10:04:27;7.22;;;3.22;;
23519;SDS011;11936;50.820;4.336;2023-11-18T10:06:53;6.68;;;3.88;;
23519;SDS011;11936;50.820;4.336;2023-11-18T10:09:21;8.05;;;3.75;;
23519;SDS011;11936;50.820;4.336;2023-11-18T10:11:54;6.85;;;3.50;;
23519;SDS011;11936;50.820;4.336;2023-11-18T10:14:28;7.25;;;4.07;;
23519;SDS011;11936;50.820;4.336;2023-11-18T10:16:54;6.85;;;3.58;;
23519;SDS011;11936;50.820;4.336;2023-11-18T10:19:20;5.93;;;3.65;;
23519;SDS011;11936;50.820;4.336;2023-11-18T10:21:46;5.90;;;3.88;;
23519;SDS011;11936;50.820;4.336;2023-11-18T10:24:15;5.75;;;3.55;;
23519;SDS011;11936;50.820;4.336;2023-11-18T10:26:44;4.18;;;3.42;;
23519;SDS011;11936;50.820;4.336;2023-11-18T10:29:23;5.00;;;3.30;;
23519;SDS011;11936;50.820;4.336;2023-11-18T10:32:01;5.25;;;3.33;;
23519;SDS011;11936;50.820;4.336;2023-11-18T10:34:35;5.15;;;3.85;;
23519;SDS011;11936;50.820;4.336;2023-11-18T10:37:01;7.22;;;3.28;;
23519;SDS011;11936;50.820;4.336;2023-11-18T10:39:31;3.85;;;3.10;;
23519;SDS011;11936;50.820;4.336;2023-11-18T10:41:59;4.75;;;3.28;;
23519;SDS011;11936;50.820;4.336;2023-11-18T10:44:26;5.72;;;3.15;;
23519;SDS011;11936;50.820;4.336;2023-11-18T10:46:52;4.82;;;3.50;;
23519;SDS011;11936;50.820;4.336;2023-11-18T10:49:20;5.47;;;2.85;;
23519;SDS011;11936;50.820;4.336;2023-11-18T10:51:46;4.20;;;3.03;;
23519;SDS011;11936;50.820;4.336;2023-11-18T10:54:12;4.63;;;2.50;;
23519;SDS011;11936;50.820;4.336;2023-11-18T10:56:50;4.25;;;2.63;;
23519;SDS011;11936;50.820;4.336;2023-11-18T10:59:21;6.78;;;2.63;;
23519;SDS011;11936;50.820;4.336;2023-11-18T11:01:47;3.58;;;2.33;;
23519;SDS011;11936;50.820;4.336;2023-11-18T11:04:14;6.30;;;2.40;;
23519;SDS011;11936;50.820;4.336;2023-11-18T11:06:46;6.63;;;2.50;;
23519;SDS011;11936;50.820;4.336;2023-11-18T11:09:19;2.38;;;1.60;;
23519;SDS011;11936;50.820;4.336;2023-11-18T11:11:51;4.65;;;1.90;;
23519;SDS011;11936;50.820;4.336;2023-11-18T11:14:18;2.35;;;1.50;;
23519;SDS011;11936;50.820;4.336;2023-11-18T11:19:26;6.22;;;2.35;;
23519;SDS011;11936;50.820;4.336;2023-11-18T11:22:09;3.47;;;1.90;;
23519;SDS011;11936;50.820;4.336;2023-11-18T11:28:48;5.25;;;2.75;;
23519;SDS011;11936;50.820;4.336;2023-11-18T11:33:24;4.45;;;1.88;;
23519;SDS011;11936;50.820;4.336;2023-11-18T11:36:05;3.85;;;1.88;;
23519;SDS011;11936;50.820;4.336;2023-11-18T11:38:41;3.13;;;1.27;;
23519;SDS011;11936;50.820;4.336;2023-11-18T11:41:11;1.90;;;1.40;;
23519;SDS011;11936;50.820;4.336;2023-11-18T11:43:44;1.63;;;1.42;;
23519;SDS011;11936;50.820;4.336;2023-11-18T11:46:13;2.28;;;1.42;;
23519;SDS011;11936;50.820;4.336;2023-11-18T11:48:44;4.78;;;1.73;;
23519;SDS011;11936;50.820;4.336;2023-11-18T11:51:16;1.42;;;1.33;;
23519;SDS011;11936;50.820;4.336;2023-11-18T11:53:47;3.05;;;1.55;;
23519;SDS011;11936;50.820;4.336;2023-11-18T11:56:19;3.80;;;1.40;;
23519;SDS011;11936;50.820;4.336;2023-11-18T11:58:49;1.30;;;1.20;;
23519;SDS011;11936;50.820;4.336;2023-11-18T12:01:32;1.40;;;1.15;;
23519;SDS011;11936;50.820;4.336;2023-11-18T12:04:08;1.70;;;1.52;;
23519;SDS011;11936;50.820;4.336;2023-11-18T12:06:45;2.47;;;1.10;;
23519;SDS011;11936;50.820;4.336;2023-11-18T12:09:13;1.40;;;1.30;;
23519;SDS011;11936;50.820;4.336;2023-11-18T12:11:48;1.45;;;1.30;;
23519;SDS011;11936;50.820;4.336;2023-11-18T12:14:14;2.35;;;1.27;;
23519;SDS011;11936;50.820;4.336;2023-11-18T12:17:05;1.95;;;1.40;;
23519;SDS011;11936;50.820;4.336;2023-11-18T12:19:34;2.50;;;1.08;;
23519;SDS011;11936;50.820;4.336;2023-11-18T12:22:09;3.55;;;0.90;;
23519;SDS011;11936;50.820;4.336;2023-11-18T12:24:42;2.70;;;1.00;;
23519;SDS011;11936;50.820;4.336;2023-11-18T12:41:04;1.02;;;0.80;;
23519;SDS011;11936;50.820;4.336;2023-11-18T12:43:48;1.13;;;1.00;;
23519;SDS011;11936;50.820;4.336;2023-11-18T12:49:36;0.70;;;0.70;;
23519;SDS011;11936;50.820;4.336;2023-11-18T12:52:06;1.52;;;1.05;;
23519;SDS011;11936;50.820;4.336;2023-11-18T12:54:39;1.75;;;0.77;;
23519;SDS011;11936;50.820;4.336;2023-11-18T12:57:08;1.23;;;0.90;;
23519;SDS011;11936;50.820;4.336;2023-11-18T12:59:35;0.90;;;0.90;;
23519;SDS011;11936;50.820;4.336;2023-11-18T13:02:01;1.10;;;1.05;;
23519;SDS011;11936;50.820;4.336;2023-11-18T13:04:32;1.20;;;1.10;;
23519;SDS011;11936;50.820;4.336;2023-11-18T13:07:05;0.82;;;0.80;;
23519;SDS011;11936;50.820;4.336;2023-11-18T13:09:33;1.27;;;0.98;;
23519;SDS011;11936;50.820;4.336;2023-11-18T13:12:01;2.35;;;0.80;;
23519;SDS011;11936;50.820;4.336;2023-11-18T13:14:33;1.88;;;0.93;;
23519;SDS011;11936;50.820;4.336;2023-11-18T13:17:02;1.88;;;0.90;;
23519;SDS011;11936;50.820;4.336;2023-11-18T13:19:31;1.38;;;0.90;;
23519;SDS011;11936;50.820;4.336;2023-11-18T13:22:00;0.93;;;0.68;;
23519;SDS011;11936;50.820;4.336;2023-11-18T13:24:29;3.63;;;1.10;;
23519;SDS011;11936;50.820;4.336;2023-11-18T13:26:56;1.27;;;0.80;;
23519;SDS011;11936;50.820;4.336;2023-11-18T13:29:22;0.70;;;0.70;;
23519;SDS011;11936;50.820;4.336;2023-11-18T13:31:49;1.50;;;0.90;;
23519;SDS011;11936;50.820;4.336;2023-11-18T13:34:16;1.67;;;1.08;;
23519;SDS011;11936;50.820;4.336;2023-11-18T13:36:48;1.13;;;0.98;;
23519;SDS011;11936;50.820;4.336;2023-11-18T13:39:15;0.77;;;0.77;;
23519;SDS011;11936;50.820;4.336;2023-11-18T13:41:42;1.00;;;0.90;;
23519;SDS011;11936;50.820;4.336;2023-11-18T13:44:09;3.33;;;1.10;;
23519;SDS011;11936;50.820;4.336;2023-11-18T13:46:47;0.70;;;0.70;;
23519;SDS011;11936;50.820;4.336;2023-11-18T13:49:13;1.58;;;0.80;;
23519;SDS011;11936;50.820;4.336;2023-11-18T13:51:39;1.65;;;0.90;;
23519;SDS011;11936;50.820;4.336;2023-11-18T13:54:05;1.05;;;0.73;;
23519;SDS011;11936;50.820;4.336;2023-11-18T13:56:31;1.00;;;0.90;;
23519;SDS011;11936;50.820;4.336;2023-11-18T13:58:57;0.60;;;0.60;;
23519;SDS011;11936;50.820;4.336;2023-11-18T14:01:23;0.82;;;0.82;;
23519;SDS011;11936;50.820;4.336;2023-11-18T14:03:51;0.82;;;0.82;;
23519;SDS011;11936;50.820;4.336;2023-11-18T14:06:21;1.23;;;1.13;;
23519;SDS011;11936;50.820;4.336;2023-11-18T14:08:47;2.28;;;1.02;;
23519;SDS011;11936;50.820;4.336;2023-11-18T14:11:13;1.42;;;0.90;;
23519;SDS011;11936;50.820;4.336;2023-11-18T14:13:39;1.50;;;1.15;;
23519;SDS011;11936;50.820;4.336;2023-11-18T14:16:04;0.90;;;0.90;;
23519;SDS011;11936;50.820;4.336;2023-11-18T14:18:34;1.02;;;0.90;;
23519;SDS011;11936;50.820;4.336;2023-11-18T14:21:01;0.80;;;0.80;;
23519;SDS011;11936;50.820;4.336;2023-11-18T14:23:27;0.60;;;0.60;;
23519;SDS011;11936;50.820;4.336;2023-11-18T14:25:52;0.70;;;0.70;;
23519;SDS011;11936;50.820;4.336;2023-11-18T14:28:18;0.60;;;0.60;;
23519;SDS011;11936;50.820;4.336;2023-11-18T14:30:44;0.57;;;0.57;;
23519;SDS011;11936;50.820;4.336;2023-11-18T14:33:10;1.50;;;0.80;;
23519;SDS011;11936;50.820;4.336;2023-11-18T14:35:36;1.13;;;0.60;;
23519;SDS011;11936;50.820;4.336;2023-11-18T14:38:02;0.60;;;0.60;;
23519;SDS011;11936;50.820;4.336;2023-11-18T14:40:28;0.80;;;0.80;;
23519;SDS011;11936;50.820;4.336;2023-11-18T14:42:54;0.82;;;0.73;;
23519;SDS011;11936;50.820;4.336;2023-11-18T14:45:20;0.50;;;0.50;;
23519;SDS011;11936;50.820;4.336;2023-11-18T14:47:46;0.75;;;0.75;;
23519;SDS011;11936;50.820;4.336;2023-11-18T14:50:13;0.93;;;0.70;;
23519;SDS011;11936;50.820;4.336;2023-11-18T14:52:48;0.68;;;0.68;;
23519;SDS011;11936;50.820;4.336;2023-11-18T14:57:53;0.57;;;0.57;;
23519;SDS011;11936;50.820;4.336;2023-11-18T15:00:20;1.52;;;0.98;;
23519;SDS011;11936;50.820;4.336;2023-11-18T15:02:52;1.00;;;0.93;;
23519;SDS011;11936;50.820;4.336;2023-11-18T15:05:19;0.73;;;0.60;;
23519;SDS011;11936;50.820;4.336;2023-11-18T15:07:45;0.43;;;0.43;;
23519;SDS011;11936;50.820;4.336;2023-11-18T15:10:15;0.70;;;0.70;;
23519;SDS011;11936;50.820;4.336;2023-11-18T15:12:48;0.80;;;0.77;;
23519;SDS011;11936;50.820;4.336;2023-11-18T15:15:25;1.50;;;0.50;;
23519;SDS011;11936;50.820;4.336;2023-11-18T15:17:58;1.00;;;0.90;;
23519;SDS011;11936;50.820;4.336;2023-11-18T15:20:28;0.73;;;0.73;;
23519;SDS011;11936;50.820;4.336;2023-11-18T15:22:54;0.70;;;0.70;;
23519;SDS011;11936;50.820;4.336;2023-11-18T15:25:20;0.73;;;0.73;;
23519;SDS011;11936;50.820;4.336;2023-11-18T15:27:46;0.77;;;0.77;;
23519;SDS011;11936;50.820;4.336;2023-11-18T15:30:13;0.95;;;0.82;;
23519;SDS011;11936;50.820;4.336;2023-11-18T15:32:39;1.00;;;0.68;;
23519;SDS011;11936;50.820;4.336;2023-11-18T15:35:07;1.52;;;0.75;;
23519;SDS011;11936;50.820;4.336;2023-11-18T15:37:34;1.33;;;1.25;;
23519;SDS011;11936;50.820;4.336;2023-11-18T15:40:07;1.88;;;1.00;;